sensor_id;sensor_type;location;lat;lon;timestamp;temperature;humidity
14850;DHT22;7517;48.400;11.770;2023-01-30T00:01:55;3.90;62.90
14850;DHT22;7517;48.400;11.770;2023-01-30T00:04:26;4.60;63.40
14850;DHT22;7517;48.400;11.770;2023-01-30T00:06:53;4.50;63.40
14850;DHT22;7517;48.400;11.770;2023-01-30T00:09:20;4.50;63.50
14850;DHT22;7517;48.400;11.770;2023-01-30T00:11:48;4.50;63.50
14850;DHT22;7517;48.400;11.770;2023-01-30T00:14:15;4.50;63.60
14850;DHT22;7517;48.400;11.770;2023-01-30T00:16:42;4.50;63.60
14850;DHT22;7517;48.400;11.770;2023-01-30T00:19:11;4.50;63.60
14850;DHT22;7517;48.400;11.770;2023-01-30T00:21:38;4.50;63.60
14850;DHT22;7517;48.400;11.770;2023-01-30T00:24:07;4.60;63.80
14850;DHT22;7517;48.400;11.770;2023-01-30T00:26:34;4.40;63.70
14850;DHT22;7517;48.400;11.770;2023-01-30T00:29:02;4.40;63.80
14850;DHT22;7517;48.400;11.770;2023-01-30T00:31:29;4.40;63.90
14850;DHT22;7517;48.400;11.770;2023-01-30T00:33:56;4.40;63.90
14850;DHT22;7517;48.400;11.770;2023-01-30T00:36:25;4.40;64.00
14850;DHT22;7517;48.400;11.770;2023-01-30T00:38:52;4.30;63.80
14850;DHT22;7517;48.400;11.770;2023-01-30T00:41:22;4.40;63.80
14850;DHT22;7517;48.400;11.770;2023-01-30T00:44:09;4.40;63.80
14850;DHT22;7517;48.400;11.770;2023-01-30T00:46:54;4.40;63.70
14850;DHT22;7517;48.400;11.770;2023-01-30T00:49:31;4.30;63.70
14850;DHT22;7517;48.400;11.770;2023-01-30T00:52:00;4.30;63.70
14850;DHT22;7517;48.400;11.770;2023-01-30T00:54:27;4.30;63.80
14850;DHT22;7517;48.400;11.770;2023-01-30T00:56:54;4.30;63.80
14850;DHT22;7517;48.400;11.770;2023-01-30T00:59:21;4.30;63.70
14850;DHT22;7517;48.400;11.770;2023-01-30T01:01:48;4.30;63.80
14850;DHT22;7517;48.400;11.770;2023-01-30T01:04:16;4.30;63.90
14850;DHT22;7517;48.400;11.770;2023-01-30T01:06:43;4.20;63.90
14850;DHT22;7517;48.400;11.770;2023-01-30T01:09:12;4.20;63.90
14850;DHT22;7517;48.400;11.770;2023-01-30T01:11:39;4.20;64.00
14850;DHT22;7517;48.400;11.770;2023-01-30T01:14:06;4.20;63.90
14850;DHT22;7517;48.400;11.770;2023-01-30T01:16:34;4.20;63.80
14850;DHT22;7517;48.400;11.770;2023-01-30T01:19:02;4.20;63.80
14850;DHT22;7517;48.400;11.770;2023-01-30T01:21:29;4.30;63.80
14850;DHT22;7517;48.400;11.770;2023-01-30T01:23:58;4.10;63.80
14850;DHT22;7517;48.400;11.770;2023-01-30T01:26:28;4.10;63.80
14850;DHT22;7517;48.400;11.770;2023-01-30T01:28:55;4.10;63.80
14850;DHT22;7517;48.400;11.770;2023-01-30T01:31:24;4.10;63.90
14850;DHT22;7517;48.400;11.770;2023-01-30T01:33:51;4.00;63.80
14850;DHT22;7517;48.400;11.770;2023-01-30T01:36:18;4.10;63.80
14850;DHT22;7517;48.400;11.770;2023-01-30T01:38:46;4.00;63.70
14850;DHT22;7517;48.400;11.770;2023-01-30T01:41:15;4.00;63.60
14850;DHT22;7517;48.400;11.770;2023-01-30T01:46:54;4.00;63.70
14850;DHT22;7517;48.400;11.770;2023-01-30T01:49:26;3.90;63.80
14850;DHT22;7517;48.400;11.770;2023-01-30T01:52:01;3.90;64.00
14850;DHT22;7517;48.400;11.770;2023-01-30T01:54:40;3.80;64.00
14850;DHT22;7517;48.400;11.770;2023-01-30T01:57:16;5.30;65.00
14850;DHT22;7517;48.400;11.770;2023-01-30T01:59:53;3.50;63.80
14850;DHT22;7517;48.400;11.770;2023-01-30T02:02:33;3.90;64.10
14850;DHT22;7517;48.400;11.770;2023-01-30T02:05:04;3.90;64.00
14850;DHT22;7517;48.400;11.770;2023-01-30T02:07:43;3.90;64.10
14850;DHT22;7517;48.400;11.770;2023-01-30T02:10:36;3.90;64.00
14850;DHT22;7517;48.400;11.770;2023-01-30T02:13:22;3.90;64.00
14850;DHT22;7517;48.400;11.770;2023-01-30T02:16:07;3.80;63.80
14850;DHT22;7517;48.400;11.770;2023-01-30T02:18:56;3.80;63.70
14850;DHT22;7517;48.400;11.770;2023-01-30T02:22:14;3.80;63.70
14850;DHT22;7517;48.400;11.770;2023-01-30T02:28:54;3.80;63.90
14850;DHT22;7517;48.400;11.770;2023-01-30T02:31:41;3.80;64.10
14850;DHT22;7517;48.400;11.770;2023-01-30T02:34:33;3.80;64.10
14850;DHT22;7517;48.400;11.770;2023-01-30T02:37:16;3.70;64.10
14850;DHT22;7517;48.400;11.770;2023-01-30T02:40:08;3.80;64.10
14850;DHT22;7517;48.400;11.770;2023-01-30T02:42:53;3.70;64.00
14850;DHT22;7517;48.400;11.770;2023-01-30T02:45:35;3.70;64.00
14850;DHT22;7517;48.400;11.770;2023-01-30T02:48:24;3.70;64.00
14850;DHT22;7517;48.400;11.770;2023-01-30T02:51:00;3.70;64.10
14850;DHT22;7517;48.400;11.770;2023-01-30T02:53:36;3.60;64.10
14850;DHT22;7517;48.400;11.770;2023-01-30T02:56:07;3.60;64.10
14850;DHT22;7517;48.400;11.770;2023-01-30T02:58:39;3.60;64.10
14850;DHT22;7517;48.400;11.770;2023-01-30T03:01:40;3.60;64.20
14850;DHT22;7517;48.400;11.770;2023-01-30T03:04:29;3.60;64.30
14850;DHT22;7517;48.400;11.770;2023-01-30T03:07:24;3.70;64.20
14850;DHT22;7517;48.400;11.770;2023-01-30T03:10:04;3.60;64.20
14850;DHT22;7517;48.400;11.770;2023-01-30T03:12:42;3.60;64.30
14850;DHT22;7517;48.400;11.770;2023-01-30T03:15:20;3.60;64.20
14850;DHT22;7517;48.400;11.770;2023-01-30T03:17:54;3.60;64.10
14850;DHT22;7517;48.400;11.770;2023-01-30T03:20:24;3.50;64.00
14850;DHT22;7517;48.400;11.770;2023-01-30T03:22:53;3.50;64.10
14850;DHT22;7517;48.400;11.770;2023-01-30T03:25:23;3.50;64.30
14850;DHT22;7517;48.400;11.770;2023-01-30T03:27:56;3.50;64.40
14850;DHT22;7517;48.400;11.770;2023-01-30T03:30:25;3.50;64.50
14850;DHT22;7517;48.400;11.770;2023-01-30T03:32:54;3.40;64.50
14850;DHT22;7517;48.400;11.770;2023-01-30T03:35:23;3.40;64.40
14850;DHT22;7517;48.400;11.770;2023-01-30T03:37:53;3.60;64.60
14850;DHT22;7517;48.400;11.770;2023-01-30T03:40:22;3.40;64.50
14850;DHT22;7517;48.400;11.770;2023-01-30T03:42:52;3.40;64.50
14850;DHT22;7517;48.400;11.770;2023-01-30T03:45:22;3.40;65.30
14850;DHT22;7517;48.400;11.770;2023-01-30T03:47:51;3.40;65.30
14850;DHT22;7517;48.400;11.770;2023-01-30T03:50:25;3.40;64.60
14850;DHT22;7517;48.400;11.770;2023-01-30T03:52:54;3.40;64.60
14850;DHT22;7517;48.400;11.770;2023-01-30T03:55:24;3.40;64.70
14850;DHT22;7517;48.400;11.770;2023-01-30T03:57:54;3.40;64.70
14850;DHT22;7517;48.400;11.770;2023-01-30T04:00:23;3.40;64.70
14850;DHT22;7517;48.400;11.770;2023-01-30T04:02:53;3.40;64.70
14850;DHT22;7517;48.400;11.770;2023-01-30T04:05:30;3.40;64.70
14850;DHT22;7517;48.400;11.770;2023-01-30T04:08:05;3.40;64.70
14850;DHT22;7517;48.400;11.770;2023-01-30T04:10:38;3.40;64.90
14850;DHT22;7517;48.400;11.770;2023-01-30T04:13:20;3.40;64.80
14850;DHT22;7517;48.400;11.770;2023-01-30T04:16:12;3.40;65.00
14850;DHT22;7517;48.400;11.770;2023-01-30T04:18:42;3.40;65.20
14850;DHT22;7517;48.400;11.770;2023-01-30T04:21:13;3.40;65.10
14850;DHT22;7517;48.400;11.770;2023-01-30T04:23:43;3.40;65.10
14850;DHT22;7517;48.400;11.770;2023-01-30T04:26:18;3.40;65.10
14850;DHT22;7517;48.400;11.770;2023-01-30T04:28:51;3.40;65.10
14850;DHT22;7517;48.400;11.770;2023-01-30T04:31:21;3.40;65.10
14850;DHT22;7517;48.400;11.770;2023-01-30T04:33:52;3.40;65.10
14850;DHT22;7517;48.400;11.770;2023-01-30T04:36:25;3.50;65.20
14850;DHT22;7517;48.400;11.770;2023-01-30T04:38:56;3.50;65.20
14850;DHT22;7517;48.400;11.770;2023-01-30T04:41:25;3.50;65.30
14850;DHT22;7517;48.400;11.770;2023-01-30T04:43:56;3.50;65.30
14850;DHT22;7517;48.400;11.770;2023-01-30T04:46:32;3.50;65.20
14850;DHT22;7517;48.400;11.770;2023-01-30T04:49:08;3.50;65.30
14850;DHT22;7517;48.400;11.770;2023-01-30T04:51:37;3.50;65.30
14850;DHT22;7517;48.400;11.770;2023-01-30T04:54:06;3.50;65.30
14850;DHT22;7517;48.400;11.770;2023-01-30T04:56:38;3.60;65.30
14850;DHT22;7517;48.400;11.770;2023-01-30T04:59:09;3.50;65.20
14850;DHT22;7517;48.400;11.770;2023-01-30T05:01:38;3.50;65.10
14850;DHT22;7517;48.400;11.770;2023-01-30T05:04:08;3.50;65.10
14850;DHT22;7517;48.400;11.770;2023-01-30T05:06:37;3.50;65.10
14850;DHT22;7517;48.400;11.770;2023-01-30T05:09:07;3.50;65.10
14850;DHT22;7517;48.400;11.770;2023-01-30T05:11:34;3.50;65.10
14850;DHT22;7517;48.400;11.770;2023-01-30T05:14:03;3.50;65.20
14850;DHT22;7517;48.400;11.770;2023-01-30T05:16:30;3.50;65.10
14850;DHT22;7517;48.400;11.770;2023-01-30T05:18:58;3.50;65.10
14850;DHT22;7517;48.400;11.770;2023-01-30T05:21:26;3.50;65.20
14850;DHT22;7517;48.400;11.770;2023-01-30T05:23:55;3.50;65.10
14850;DHT22;7517;48.400;11.770;2023-01-30T05:26:23;3.50;65.10
14850;DHT22;7517;48.400;11.770;2023-01-30T05:28:52;3.50;65.20
14850;DHT22;7517;48.400;11.770;2023-01-30T05:31:20;3.40;65.20
14850;DHT22;7517;48.400;11.770;2023-01-30T05:33:49;3.50;65.30
14850;DHT22;7517;48.400;11.770;2023-01-30T05:36:18;3.50;65.40
14850;DHT22;7517;48.400;11.770;2023-01-30T05:38:47;3.50;65.40
14850;DHT22;7517;48.400;11.770;2023-01-30T05:41:16;3.50;65.40
14850;DHT22;7517;48.400;11.770;2023-01-30T05:43:48;3.40;65.40
14850;DHT22;7517;48.400;11.770;2023-01-30T05:46:16;3.50;65.40
14850;DHT22;7517;48.400;11.770;2023-01-30T05:48:44;3.40;66.00
14850;DHT22;7517;48.400;11.770;2023-01-30T05:51:16;3.50;65.40
14850;DHT22;7517;48.400;11.770;2023-01-30T05:53:44;3.50;65.50
14850;DHT22;7517;48.400;11.770;2023-01-30T05:56:11;3.50;65.50
14850;DHT22;7517;48.400;11.770;2023-01-30T05:58:40;3.50;65.50
14850;DHT22;7517;48.400;11.770;2023-01-30T06:01:10;3.50;65.50
14850;DHT22;7517;48.400;11.770;2023-01-30T06:03:38;3.50;65.60
14850;DHT22;7517;48.400;11.770;2023-01-30T06:06:06;3.50;65.70
14850;DHT22;7517;48.400;11.770;2023-01-30T06:08:33;3.50;65.80
14850;DHT22;7517;48.400;11.770;2023-01-30T06:11:01;3.50;65.80
14850;DHT22;7517;48.400;11.770;2023-01-30T06:13:29;3.60;65.90
14850;DHT22;7517;48.400;11.770;2023-01-30T06:15:58;3.60;66.60
14850;DHT22;7517;48.400;11.770;2023-01-30T06:18:31;3.60;65.90
14850;DHT22;7517;48.400;11.770;2023-01-30T06:20:58;3.60;65.90
14850;DHT22;7517;48.400;11.770;2023-01-30T06:23:26;3.70;65.90
14850;DHT22;7517;48.400;11.770;2023-01-30T06:25:54;3.70;66.00
14850;DHT22;7517;48.400;11.770;2023-01-30T06:28:22;3.70;65.80
14850;DHT22;7517;48.400;11.770;2023-01-30T06:30:50;3.80;65.80
14850;DHT22;7517;48.400;11.770;2023-01-30T06:33:20;3.80;65.70
14850;DHT22;7517;48.400;11.770;2023-01-30T06:35:48;3.90;65.80
14850;DHT22;7517;48.400;11.770;2023-01-30T06:38:16;3.90;65.70
14850;DHT22;7517;48.400;11.770;2023-01-30T06:40:48;4.00;65.60
14850;DHT22;7517;48.400;11.770;2023-01-30T06:43:16;4.00;65.60
14850;DHT22;7517;48.400;11.770;2023-01-30T06:48:36;4.10;65.50
14850;DHT22;7517;48.400;11.770;2023-01-30T06:51:09;4.20;65.40
14850;DHT22;7517;48.400;11.770;2023-01-30T06:53:37;4.30;65.30
14850;DHT22;7517;48.400;11.770;2023-01-30T06:56:04;4.30;65.30
14850;DHT22;7517;48.400;11.770;2023-01-30T06:58:38;4.40;65.30
14850;DHT22;7517;48.400;11.770;2023-01-30T07:01:05;4.40;65.20
14850;DHT22;7517;48.400;11.770;2023-01-30T07:03:32;4.50;65.20
14850;DHT22;7517;48.400;11.770;2023-01-30T07:06:01;4.50;65.10
14850;DHT22;7517;48.400;11.770;2023-01-30T07:08:28;4.60;65.00
14850;DHT22;7517;48.400;11.770;2023-01-30T07:10:55;4.60;65.00
14850;DHT22;7517;48.400;11.770;2023-01-30T07:13:22;4.70;65.00
14850;DHT22;7517;48.400;11.770;2023-01-30T07:15:50;4.80;65.00
14850;DHT22;7517;48.400;11.770;2023-01-30T07:18:17;4.80;64.70
14850;DHT22;7517;48.400;11.770;2023-01-30T07:20:46;4.80;64.50
14850;DHT22;7517;48.400;11.770;2023-01-30T07:23:15;4.90;64.50
14850;DHT22;7517;48.400;11.770;2023-01-30T07:25:43;4.90;64.20
14850;DHT22;7517;48.400;11.770;2023-01-30T07:28:10;4.90;64.10
14850;DHT22;7517;48.400;11.770;2023-01-30T07:30:37;5.00;64.90
14850;DHT22;7517;48.400;11.770;2023-01-30T07:33:05;5.00;64.20
14850;DHT22;7517;48.400;11.770;2023-01-30T07:35:34;5.00;64.10
14850;DHT22;7517;48.400;11.770;2023-01-30T07:38:02;5.10;64.20
14850;DHT22;7517;48.400;11.770;2023-01-30T07:40:31;5.10;63.90
14850;DHT22;7517;48.400;11.770;2023-01-30T07:43:00;5.20;63.80
14850;DHT22;7517;48.400;11.770;2023-01-30T07:45:49;5.20;63.70
14850;DHT22;7517;48.400;11.770;2023-01-30T07:48:17;5.20;63.40
14850;DHT22;7517;48.400;11.770;2023-01-30T07:50:45;5.20;63.50
14850;DHT22;7517;48.400;11.770;2023-01-30T07:53:14;5.30;63.50
14850;DHT22;7517;48.400;11.770;2023-01-30T07:55:44;5.30;63.50
14850;DHT22;7517;48.400;11.770;2023-01-30T07:58:12;5.40;63.30
14850;DHT22;7517;48.400;11.770;2023-01-30T08:00:40;5.40;63.30
14850;DHT22;7517;48.400;11.770;2023-01-30T08:03:11;5.40;63.20
14850;DHT22;7517;48.400;11.770;2023-01-30T08:05:39;5.50;63.20
14850;DHT22;7517;48.400;11.770;2023-01-30T08:08:06;5.50;63.10
14850;DHT22;7517;48.400;11.770;2023-01-30T08:10:33;5.60;63.00
14850;DHT22;7517;48.400;11.770;2023-01-30T08:13:02;5.60;63.00
14850;DHT22;7517;48.400;11.770;2023-01-30T08:15:31;5.60;63.00
14850;DHT22;7517;48.400;11.770;2023-01-30T08:17:59;5.70;62.70
14850;DHT22;7517;48.400;11.770;2023-01-30T08:20:27;5.70;62.50
14850;DHT22;7517;48.400;11.770;2023-01-30T08:22:54;5.80;62.60
14850;DHT22;7517;48.400;11.770;2023-01-30T08:25:22;5.80;62.60
14850;DHT22;7517;48.400;11.770;2023-01-30T08:27:49;5.90;62.70
14850;DHT22;7517;48.400;11.770;2023-01-30T08:30:20;5.90;62.60
14850;DHT22;7517;48.400;11.770;2023-01-30T08:32:48;6.00;62.60
14850;DHT22;7517;48.400;11.770;2023-01-30T08:35:15;6.00;62.50
14850;DHT22;7517;48.400;11.770;2023-01-30T08:37:43;6.10;62.40
14850;DHT22;7517;48.400;11.770;2023-01-30T08:40:11;6.10;62.20
14850;DHT22;7517;48.400;11.770;2023-01-30T08:42:39;6.20;62.00
14850;DHT22;7517;48.400;11.770;2023-01-30T08:45:07;6.20;62.00
14850;DHT22;7517;48.400;11.770;2023-01-30T08:47:36;6.30;62.10
14850;DHT22;7517;48.400;11.770;2023-01-30T08:50:06;6.30;62.00
14850;DHT22;7517;48.400;11.770;2023-01-30T08:52:35;6.40;61.90
14850;DHT22;7517;48.400;11.770;2023-01-30T08:55:02;6.40;62.00
14850;DHT22;7517;48.400;11.770;2023-01-30T08:57:30;6.50;61.80
14850;DHT22;7517;48.400;11.770;2023-01-30T08:59:58;6.60;61.70
14850;DHT22;7517;48.400;11.770;2023-01-30T09:02:25;6.60;61.90
14850;DHT22;7517;48.400;11.770;2023-01-30T09:04:54;6.70;62.00
14850;DHT22;7517;48.400;11.770;2023-01-30T09:07:21;6.80;61.90
14850;DHT22;7517;48.400;11.770;2023-01-30T09:09:53;6.90;61.80
14850;DHT22;7517;48.400;11.770;2023-01-30T09:12:20;7.00;61.90
14850;DHT22;7517;48.400;11.770;2023-01-30T09:14:47;7.10;62.00
14850;DHT22;7517;48.400;11.770;2023-01-30T09:17:17;7.20;61.80
14850;DHT22;7517;48.400;11.770;2023-01-30T09:19:44;7.40;61.70
14850;DHT22;7517;48.400;11.770;2023-01-30T09:22:13;7.50;61.50
14850;DHT22;7517;48.400;11.770;2023-01-30T09:24:40;7.60;61.00
14850;DHT22;7517;48.400;11.770;2023-01-30T09:27:13;7.70;60.90
14850;DHT22;7517;48.400;11.770;2023-01-30T09:30:10;7.70;60.70
14850;DHT22;7517;48.400;11.770;2023-01-30T09:32:38;7.80;60.70
14850;DHT22;7517;48.400;11.770;2023-01-30T09:35:06;7.90;60.40
14850;DHT22;7517;48.400;11.770;2023-01-30T09:37:35;7.90;60.30
14850;DHT22;7517;48.400;11.770;2023-01-30T09:40:03;8.00;60.00
14850;DHT22;7517;48.400;11.770;2023-01-30T09:46:00;8.10;59.90
14850;DHT22;7517;48.400;11.770;2023-01-30T09:48:38;8.10;60.10
14850;DHT22;7517;48.400;11.770;2023-01-30T09:51:33;8.20;60.00
14850;DHT22;7517;48.400;11.770;2023-01-30T09:54:19;8.20;59.70
14850;DHT22;7517;48.400;11.770;2023-01-30T09:57:00;8.20;59.60
14850;DHT22;7517;48.400;11.770;2023-01-30T09:59:43;8.20;59.70
14850;DHT22;7517;48.400;11.770;2023-01-30T10:02:43;8.30;59.80
14850;DHT22;7517;48.400;11.770;2023-01-30T10:05:15;8.40;59.70
14850;DHT22;7517;48.400;11.770;2023-01-30T10:08:00;8.40;59.60
14850;DHT22;7517;48.400;11.770;2023-01-30T10:10:46;8.40;59.40
14850;DHT22;7517;48.400;11.770;2023-01-30T10:13:34;8.50;59.50
14850;DHT22;7517;48.400;11.770;2023-01-30T10:16:26;8.60;59.30
14850;DHT22;7517;48.400;11.770;2023-01-30T10:22:20;8.90;59.20
14850;DHT22;7517;48.400;11.770;2023-01-30T10:25:04;9.10;59.70
14850;DHT22;7517;48.400;11.770;2023-01-30T10:27:50;9.20;59.60
14850;DHT22;7517;48.400;11.770;2023-01-30T10:30:22;9.40;59.60
14850;DHT22;7517;48.400;11.770;2023-01-30T10:32:53;9.60;59.20
14850;DHT22;7517;48.400;11.770;2023-01-30T10:35:29;9.70;58.20
14850;DHT22;7517;48.400;11.770;2023-01-30T10:38:05;9.80;58.30
14850;DHT22;7517;48.400;11.770;2023-01-30T10:40:43;9.80;58.00
14850;DHT22;7517;48.400;11.770;2023-01-30T10:43:21;9.90;57.50
14850;DHT22;7517;48.400;11.770;2023-01-30T10:45:56;9.90;57.70
14850;DHT22;7517;48.400;11.770;2023-01-30T10:48:45;9.90;57.80
14850;DHT22;7517;48.400;11.770;2023-01-30T10:51:25;10.00;57.50
14850;DHT22;7517;48.400;11.770;2023-01-30T10:54:03;10.00;57.80
14850;DHT22;7517;48.400;11.770;2023-01-30T10:56:42;10.10;57.80
14850;DHT22;7517;48.400;11.770;2023-01-30T10:59:32;10.20;57.40
14850;DHT22;7517;48.400;11.770;2023-01-30T11:02:21;10.20;56.70
14850;DHT22;7517;48.400;11.770;2023-01-30T11:04:56;10.30;56.90
14850;DHT22;7517;48.400;11.770;2023-01-30T11:07:25;10.20;56.50
14850;DHT22;7517;48.400;11.770;2023-01-30T11:09:59;10.20;56.70
14850;DHT22;7517;48.400;11.770;2023-01-30T11:12:26;10.10;56.90
14850;DHT22;7517;48.400;11.770;2023-01-30T11:14:58;10.10;56.90
14850;DHT22;7517;48.400;11.770;2023-01-30T11:17:33;10.10;56.90
14850;DHT22;7517;48.400;11.770;2023-01-30T11:20:11;10.10;56.70
14850;DHT22;7517;48.400;11.770;2023-01-30T11:22:48;10.00;56.70
14850;DHT22;7517;48.400;11.770;2023-01-30T11:25:18;10.00;56.60
14850;DHT22;7517;48.400;11.770;2023-01-30T11:27:52;10.00;56.70
14850;DHT22;7517;48.400;11.770;2023-01-30T11:30:26;10.00;56.50
14850;DHT22;7517;48.400;11.770;2023-01-30T11:33:05;9.90;56.40
14850;DHT22;7517;48.400;11.770;2023-01-30T11:35:44;9.90;56.70
14850;DHT22;7517;48.400;11.770;2023-01-30T11:38:22;9.90;56.90
14850;DHT22;7517;48.400;11.770;2023-01-30T11:41:04;9.80;56.80
14850;DHT22;7517;48.400;11.770;2023-01-30T11:43:39;9.90;56.60
14850;DHT22;7517;48.400;11.770;2023-01-30T11:46:10;9.80;56.90
14850;DHT22;7517;48.400;11.770;2023-01-30T11:48:47;9.80;56.90
14850;DHT22;7517;48.400;11.770;2023-01-30T11:51:19;9.80;56.90
14850;DHT22;7517;48.400;11.770;2023-01-30T11:53:52;9.70;57.10
14850;DHT22;7517;48.400;11.770;2023-01-30T11:56:24;9.70;56.80
14850;DHT22;7517;48.400;11.770;2023-01-30T11:59:00;9.70;56.90
14850;DHT22;7517;48.400;11.770;2023-01-30T12:01:32;9.60;57.20
14850;DHT22;7517;48.400;11.770;2023-01-30T12:04:05;9.70;57.20
14850;DHT22;7517;48.400;11.770;2023-01-30T12:09:48;9.60;57.30
14850;DHT22;7517;48.400;11.770;2023-01-30T12:12:26;9.60;57.70
14850;DHT22;7517;48.400;11.770;2023-01-30T12:15:04;9.60;57.50
14850;DHT22;7517;48.400;11.770;2023-01-30T12:17:49;9.60;57.50
14850;DHT22;7517;48.400;11.770;2023-01-30T12:20:34;9.70;57.60
14850;DHT22;7517;48.400;11.770;2023-01-30T12:23:20;9.70;57.80
14850;DHT22;7517;48.400;11.770;2023-01-30T12:26:01;9.70;57.60
14850;DHT22;7517;48.400;11.770;2023-01-30T12:28:38;9.70;57.80
14850;DHT22;7517;48.400;11.770;2023-01-30T12:31:17;9.70;57.70
14850;DHT22;7517;48.400;11.770;2023-01-30T12:33:49;9.80;57.80
14850;DHT22;7517;48.400;11.770;2023-01-30T12:36:27;9.80;57.70
14850;DHT22;7517;48.400;11.770;2023-01-30T12:39:13;9.80;57.80
14850;DHT22;7517;48.400;11.770;2023-01-30T12:41:58;9.80;57.70
14850;DHT22;7517;48.400;11.770;2023-01-30T12:44:48;9.80;57.60
14850;DHT22;7517;48.400;11.770;2023-01-30T12:50:35;9.80;57.80
14850;DHT22;7517;48.400;11.770;2023-01-30T12:53:24;9.90;57.90
14850;DHT22;7517;48.400;11.770;2023-01-30T12:59:07;9.90;57.80
14850;DHT22;7517;48.400;11.770;2023-01-30T13:01:48;9.90;57.80
14850;DHT22;7517;48.400;11.770;2023-01-30T13:04:33;9.90;57.70
14850;DHT22;7517;48.400;11.770;2023-01-30T13:07:16;9.90;57.70
14850;DHT22;7517;48.400;11.770;2023-01-30T13:10:05;9.90;57.70
14850;DHT22;7517;48.400;11.770;2023-01-30T13:12:40;9.90;57.70
14850;DHT22;7517;48.400;11.770;2023-01-30T13:15:19;9.80;57.70
14850;DHT22;7517;48.400;11.770;2023-01-30T13:17:59;9.80;57.80
14850;DHT22;7517;48.400;11.770;2023-01-30T13:20:51;9.80;57.90
14850;DHT22;7517;48.400;11.770;2023-01-30T13:23:32;9.80;57.80
14850;DHT22;7517;48.400;11.770;2023-01-30T13:26:09;9.70;57.80
14850;DHT22;7517;48.400;11.770;2023-01-30T13:28:42;9.70;57.70
14850;DHT22;7517;48.400;11.770;2023-01-30T13:31:15;9.60;57.80
14850;DHT22;7517;48.400;11.770;2023-01-30T13:33:48;9.60;57.90
14850;DHT22;7517;48.400;11.770;2023-01-30T13:36:19;9.50;58.00
14850;DHT22;7517;48.400;11.770;2023-01-30T13:38:57;9.50;58.00
14850;DHT22;7517;48.400;11.770;2023-01-30T13:41:32;9.40;58.00
14850;DHT22;7517;48.400;11.770;2023-01-30T13:44:14;9.40;58.20
14850;DHT22;7517;48.400;11.770;2023-01-30T13:46:45;9.40;58.30
14850;DHT22;7517;48.400;11.770;2023-01-30T13:49:18;9.40;58.40
14850;DHT22;7517;48.400;11.770;2023-01-30T13:51:53;9.30;58.40
14850;DHT22;7517;48.400;11.770;2023-01-30T13:54:51;9.30;58.40
14850;DHT22;7517;48.400;11.770;2023-01-30T13:57:31;9.30;58.50
14850;DHT22;7517;48.400;11.770;2023-01-30T14:00:25;9.30;58.50
14850;DHT22;7517;48.400;11.770;2023-01-30T14:03:14;9.30;58.50
14850;DHT22;7517;48.400;11.770;2023-01-30T14:09:19;9.30;58.50
14850;DHT22;7517;48.400;11.770;2023-01-30T14:11:57;9.30;58.60
14850;DHT22;7517;48.400;11.770;2023-01-30T14:14:30;9.30;58.70
14850;DHT22;7517;48.400;11.770;2023-01-30T14:17:12;9.20;58.60
14850;DHT22;7517;48.400;11.770;2023-01-30T14:19:57;9.30;58.80
14850;DHT22;7517;48.400;11.770;2023-01-30T14:22:31;9.20;58.80
14850;DHT22;7517;48.400;11.770;2023-01-30T14:28:48;9.20;59.00
14850;DHT22;7517;48.400;11.770;2023-01-30T14:31:45;9.20;59.20
14850;DHT22;7517;48.400;11.770;2023-01-30T14:34:47;9.20;59.40
14850;DHT22;7517;48.400;11.770;2023-01-30T14:40:46;9.10;59.60
14850;DHT22;7517;48.400;11.770;2023-01-30T14:43:50;9.00;59.60
14850;DHT22;7517;48.400;11.770;2023-01-30T14:46:40;9.00;59.90
14850;DHT22;7517;48.400;11.770;2023-01-30T14:49:24;9.00;60.10
14850;DHT22;7517;48.400;11.770;2023-01-30T14:51:55;9.00;60.20
14850;DHT22;7517;48.400;11.770;2023-01-30T14:54:35;9.00;60.30
14850;DHT22;7517;48.400;11.770;2023-01-30T14:57:17;8.90;60.70
14850;DHT22;7517;48.400;11.770;2023-01-30T14:59:51;8.90;60.90
14850;DHT22;7517;48.400;11.770;2023-01-30T15:02:24;8.90;61.00
14850;DHT22;7517;48.400;11.770;2023-01-30T15:05:02;8.90;61.30
14850;DHT22;7517;48.400;11.770;2023-01-30T15:07:37;8.90;61.30
14850;DHT22;7517;48.400;11.770;2023-01-30T15:10:22;8.80;61.40
14850;DHT22;7517;48.400;11.770;2023-01-30T15:13:14;8.80;61.60
14850;DHT22;7517;48.400;11.770;2023-01-30T15:16:16;8.80;61.80
14850;DHT22;7517;48.400;11.770;2023-01-30T15:19:13;8.70;61.80
14850;DHT22;7517;48.400;11.770;2023-01-30T15:22:04;8.70;62.10
14850;DHT22;7517;48.400;11.770;2023-01-30T15:25:13;8.70;62.30
14850;DHT22;7517;48.400;11.770;2023-01-30T15:28:03;8.60;62.60
14850;DHT22;7517;48.400;11.770;2023-01-30T15:30:50;8.60;62.50
14850;DHT22;7517;48.400;11.770;2023-01-30T15:33:24;8.60;63.00
14850;DHT22;7517;48.400;11.770;2023-01-30T15:35:52;8.50;63.00
14850;DHT22;7517;48.400;11.770;2023-01-30T15:38:23;8.50;63.10
14850;DHT22;7517;48.400;11.770;2023-01-30T15:40:53;8.40;63.20
14850;DHT22;7517;48.400;11.770;2023-01-30T15:43:49;8.40;63.20
14850;DHT22;7517;48.400;11.770;2023-01-30T15:46:43;8.40;63.70
14850;DHT22;7517;48.400;11.770;2023-01-30T15:49:30;8.40;63.70
14850;DHT22;7517;48.400;11.770;2023-01-30T15:52:13;8.30;63.70
14850;DHT22;7517;48.400;11.770;2023-01-30T15:54:47;8.30;63.90
14850;DHT22;7517;48.400;11.770;2023-01-30T15:57:20;8.20;63.80
14850;DHT22;7517;48.400;11.770;2023-01-30T15:59:52;8.20;63.70
14850;DHT22;7517;48.400;11.770;2023-01-30T16:02:25;8.10;63.50
14850;DHT22;7517;48.400;11.770;2023-01-30T16:05:17;8.10;63.80
14850;DHT22;7517;48.400;11.770;2023-01-30T16:07:47;8.00;64.00
14850;DHT22;7517;48.400;11.770;2023-01-30T16:10:18;8.00;63.70
14850;DHT22;7517;48.400;11.770;2023-01-30T16:12:47;7.90;63.70
14850;DHT22;7517;48.400;11.770;2023-01-30T16:15:23;7.90;63.80
14850;DHT22;7517;48.400;11.770;2023-01-30T16:18:00;7.80;63.80
14850;DHT22;7517;48.400;11.770;2023-01-30T16:20:32;7.80;64.10
14850;DHT22;7517;48.400;11.770;2023-01-30T16:23:18;7.70;64.20
14850;DHT22;7517;48.400;11.770;2023-01-30T16:25:47;7.70;64.50
14850;DHT22;7517;48.400;11.770;2023-01-30T16:28:19;7.70;64.60
14850;DHT22;7517;48.400;11.770;2023-01-30T16:30:47;7.60;64.60
14850;DHT22;7517;48.400;11.770;2023-01-30T16:33:15;7.60;64.70
14850;DHT22;7517;48.400;11.770;2023-01-30T16:35:45;7.60;64.70
14850;DHT22;7517;48.400;11.770;2023-01-30T16:38:30;7.60;64.80
14850;DHT22;7517;48.400;11.770;2023-01-30T16:41:03;7.60;65.20
14850;DHT22;7517;48.400;11.770;2023-01-30T16:43:31;7.60;65.00
14850;DHT22;7517;48.400;11.770;2023-01-30T16:49:17;7.60;65.20
14850;DHT22;7517;48.400;11.770;2023-01-30T16:51:49;7.60;65.10
14850;DHT22;7517;48.400;11.770;2023-01-30T16:54:29;7.60;65.20
14850;DHT22;7517;48.400;11.770;2023-01-30T16:56:58;7.60;65.10
14850;DHT22;7517;48.400;11.770;2023-01-30T17:02:04;7.60;65.10
14850;DHT22;7517;48.400;11.770;2023-01-30T17:04:33;7.70;65.20
14850;DHT22;7517;48.400;11.770;2023-01-30T17:07:31;7.70;65.30
14850;DHT22;7517;48.400;11.770;2023-01-30T17:10:00;7.70;65.40
14850;DHT22;7517;48.400;11.770;2023-01-30T17:12:40;7.70;65.20
14850;DHT22;7517;48.400;11.770;2023-01-30T17:15:26;7.70;65.30